TOM512 EGCC-LTAI
Flight info
| Callsign | TOM512 |
|---|---|
| Flight time | N/A |
| Altitude | 37000 |
| Route | SONEX L975 DESIG L603 DOLAS DCT NAVPI DCT DODEN DCT NEGIX DCT DINKU DCT BESNI DCT GOMIG DCT BEDOX DCT LURID DCT DOBOT DCT YULHU DCT VABEK UL603 OLOTA DCT RUGAS DCT RIKSO UP14 LAVTA N135 NESIL |
| Aircraft | B38M/M-SDE1FGHILORVWXY/HB1 |
Departure
| Time | 2026-05-05 18:34 |
|---|---|
| Airport | Manchester Airport (EGCC) |
Arrival
| Time | N/A |
|---|---|
| Airport | Antalya International Airport (LTAI) |
| Time | Latitude | Longitude | Altitude | Speed | Heading |
|---|---|---|---|---|---|
| 2026-05-05 17:57 | 53.36686 | -2.28477 | 257 ft | 0 kts | 135° |
| 2026-05-05 18:19 | 53.36695 | -2.28492 | 257 ft | 4 kts | 135° |
| 2026-05-05 18:19 | 53.36714 | -2.28524 | 257 ft | 4 kts | 135° |
| 2026-05-05 18:19 | 53.36729 | -2.28547 | 257 ft | 4 kts | 163° |
| 2026-05-05 18:19 | 53.36748 | -2.28537 | 257 ft | 4 kts | 223° |
| 2026-05-05 18:20 | 53.36766 | -2.28508 | 257 ft | 4 kts | 224° |
| 2026-05-05 18:20 | 53.36785 | -2.28477 | 257 ft | 3 kts | 224° |
| 2026-05-05 18:20 | 53.36789 | -2.28471 | 257 ft | 0 kts | 224° |
| 2026-05-05 18:23 | 53.36784 | -2.28479 | 257 ft | 2 kts | 224° |
| 2026-05-05 18:23 | 53.36766 | -2.28508 | 257 ft | 5 kts | 224° |
| 2026-05-05 18:23 | 53.36738 | -2.28554 | 257 ft | 7 kts | 224° |
| 2026-05-05 18:23 | 53.36700 | -2.28616 | 257 ft | 9 kts | 224° |
| 2026-05-05 18:24 | 53.36661 | -2.28680 | 257 ft | 6 kts | 224° |
| 2026-05-05 18:24 | 53.36646 | -2.28741 | 257 ft | 6 kts | 251° |
| 2026-05-05 18:24 | 53.36610 | -2.28783 | 257 ft | 7 kts | 178° |
| 2026-05-05 18:24 | 53.36568 | -2.28735 | 257 ft | 8 kts | 136° |
| 2026-05-05 18:25 | 53.36520 | -2.28659 | 257 ft | 11 kts | 135° |
| 2026-05-05 18:25 | 53.36484 | -2.28597 | 257 ft | 12 kts | 135° |
| 2026-05-05 18:25 | 53.36413 | -2.28450 | 257 ft | 13 kts | 112° |
| 2026-05-05 18:25 | 53.36381 | -2.28347 | 257 ft | 8 kts | 134° |
| 2026-05-05 18:26 | 53.36335 | -2.28269 | 257 ft | 10 kts | 135° |
| 2026-05-05 18:26 | 53.36281 | -2.28179 | 257 ft | 10 kts | 135° |
| 2026-05-05 18:26 | 53.36227 | -2.28087 | 257 ft | 12 kts | 135° |
| 2026-05-05 18:26 | 53.36166 | -2.27988 | 257 ft | 13 kts | 140° |
| 2026-05-05 18:27 | 53.36100 | -2.27901 | 257 ft | 12 kts | 142° |
| 2026-05-05 18:27 | 53.36031 | -2.27811 | 257 ft | 12 kts | 141° |
| 2026-05-05 18:27 | 53.35952 | -2.27735 | 257 ft | 13 kts | 167° |
| 2026-05-05 18:27 | 53.35863 | -2.27729 | 257 ft | 13 kts | 184° |
| 2026-05-05 18:28 | 53.35688 | -2.27762 | 247 ft | 12 kts | 184° |
| 2026-05-05 18:28 | 53.35592 | -2.27773 | 242 ft | 14 kts | 185° |
| 2026-05-05 18:28 | 53.35514 | -2.27826 | 241 ft | 11 kts | 222° |
| 2026-05-05 18:29 | 53.35461 | -2.27913 | 241 ft | 13 kts | 224° |
| 2026-05-05 18:29 | 53.35388 | -2.28033 | 239 ft | 16 kts | 221° |
| 2026-05-05 18:29 | 53.35325 | -2.28133 | 237 ft | 1 kts | 224° |
| 2026-05-05 18:29 | 53.35307 | -2.28163 | 236 ft | 7 kts | 224° |
| 2026-05-05 18:30 | 53.35260 | -2.28245 | 234 ft | 12 kts | 229° |
| 2026-05-05 18:30 | 53.35202 | -2.28361 | 233 ft | 15 kts | 231° |
| 2026-05-05 18:30 | 53.35130 | -2.28513 | 229 ft | 17 kts | 232° |
| 2026-05-05 18:30 | 53.35072 | -2.28635 | 232 ft | 9 kts | 231° |
| 2026-05-05 18:31 | 53.35021 | -2.28733 | 230 ft | 13 kts | 227° |
| 2026-05-05 18:31 | 53.34952 | -2.28852 | 228 ft | 16 kts | 226° |
| 2026-05-05 18:31 | 53.34905 | -2.28934 | 226 ft | 12 kts | 226° |
| 2026-05-05 18:31 | 53.34847 | -2.29029 | 221 ft | 9 kts | 216° |
| 2026-05-05 18:32 | 53.34787 | -2.29064 | 221 ft | 9 kts | 185° |
| 2026-05-05 18:32 | 53.34718 | -2.29044 | 224 ft | 11 kts | 156° |
| 2026-05-05 18:32 | 53.34674 | -2.28988 | 224 ft | 6 kts | 115° |
| 2026-05-05 18:32 | 53.34674 | -2.28986 | 224 ft | 0 kts | 111° |
| 2026-05-05 18:33 | 53.34674 | -2.28963 | 221 ft | 2 kts | 83° |
| 2026-05-05 18:33 | 53.34677 | -2.28945 | 222 ft | 2 kts | 66° |
| 2026-05-05 18:33 | 53.34700 | -2.28891 | 223 ft | 11 kts | 52° |
| 2026-05-05 18:33 | 53.34860 | -2.28557 | 237 ft | 77 kts | 51° |
| 2026-05-05 18:34 | 53.35382 | -2.27498 | 248 ft | 155 kts | 50° |
| 2026-05-05 18:34 | 53.36143 | -2.25965 | 848 ft | 183 kts | 51° |
| 2026-05-05 18:34 | 53.36960 | -2.24253 | 1762 ft | 193 kts | 51° |
| 2026-05-05 18:34 | 53.37823 | -2.22404 | 2667 ft | 216 kts | 52° |
| 2026-05-05 18:35 | 53.38768 | -2.20384 | 3185 ft | 226 kts | 52° |
| 2026-05-05 18:35 | 53.39759 | -2.18275 | 3778 ft | 228 kts | 52° |
| 2026-05-05 18:35 | 53.40738 | -2.16194 | 4969 ft | 232 kts | 51° |
| 2026-05-05 18:35 | 53.41761 | -2.14019 | 5861 ft | 244 kts | 51° |
| 2026-05-05 18:36 | 53.42825 | -2.11759 | 6910 ft | 248 kts | 50° |
| 2026-05-05 18:36 | 53.43912 | -2.09443 | 7877 ft | 256 kts | 50° |
| 2026-05-05 18:36 | 53.45024 | -2.07076 | 8880 ft | 261 kts | 49° |
| 2026-05-05 18:36 | 53.46169 | -2.04638 | 9650 ft | 276 kts | 48° |
| 2026-05-05 18:37 | 53.47386 | -2.02042 | 10420 ft | 288 kts | 48° |
| 2026-05-05 18:37 | 53.48650 | -1.99371 | 11254 ft | 295 kts | 47° |
| 2026-05-05 18:37 | 53.49951 | -1.96653 | 12130 ft | 301 kts | 47° |
| 2026-05-05 18:37 | 53.51344 | -1.94000 | 12989 ft | 304 kts | 37° |
| 2026-05-05 18:38 | 53.53143 | -1.92156 | 13889 ft | 305 kts | 26° |
| 2026-05-05 18:38 | 53.54800 | -1.89826 | 14305 ft | 329 kts | 54° |
| 2026-05-05 18:38 | 53.55615 | -1.86169 | 14873 ft | 344 kts | 84° |
| 2026-05-05 18:38 | 53.55299 | -1.82145 | 15444 ft | 354 kts | 111° |
| 2026-05-05 18:39 | 53.54053 | -1.78534 | 15983 ft | 362 kts | 131° |
| 2026-05-05 18:39 | 53.52395 | -1.75284 | 16665 ft | 367 kts | 131° |
| 2026-05-05 18:39 | 53.50840 | -1.71912 | 17414 ft | 372 kts | 123° |
| 2026-05-05 18:39 | 53.49657 | -1.68012 | 18147 ft | 376 kts | 115° |
| 2026-05-05 18:40 | 53.48647 | -1.63920 | 18790 ft | 381 kts | 112° |
| 2026-05-05 18:40 | 53.47734 | -1.59722 | 19407 ft | 384 kts | 110° |
| 2026-05-05 18:40 | 53.46882 | -1.55459 | 20017 ft | 388 kts | 109° |
| 2026-05-05 18:40 | 53.46054 | -1.51117 | 20672 ft | 389 kts | 109° |
| 2026-05-05 18:41 | 53.45242 | -1.46765 | 21265 ft | 393 kts | 109° |
| 2026-05-05 18:41 | 53.44442 | -1.42419 | 21856 ft | 396 kts | 109° |
| 2026-05-05 18:41 | 53.43628 | -1.37969 | 22430 ft | 400 kts | 109° |
| 2026-05-05 18:41 | 53.42809 | -1.33489 | 23014 ft | 403 kts | 109° |
| 2026-05-05 18:42 | 53.41985 | -1.28974 | 23578 ft | 406 kts | 109° |
| 2026-05-05 18:42 | 53.41158 | -1.24407 | 24041 ft | 410 kts | 109° |
| 2026-05-05 18:42 | 53.40323 | -1.19809 | 24544 ft | 411 kts | 109° |
| 2026-05-05 18:42 | 53.39496 | -1.15272 | 25025 ft | 414 kts | 109° |
| 2026-05-05 18:43 | 53.38647 | -1.10629 | 25503 ft | 416 kts | 109° |
| 2026-05-05 18:43 | 53.37797 | -1.05988 | 25971 ft | 418 kts | 109° |
| 2026-05-05 18:43 | 53.36940 | -1.01323 | 26422 ft | 420 kts | 109° |
| 2026-05-05 18:43 | 53.36073 | -0.96614 | 26819 ft | 424 kts | 109° |
| 2026-05-05 18:44 | 53.35199 | -0.91879 | 27262 ft | 426 kts | 109° |
| 2026-05-05 18:44 | 53.34331 | -0.87190 | 27702 ft | 428 kts | 109° |
| 2026-05-05 18:44 | 53.33443 | -0.82403 | 28118 ft | 430 kts | 109° |
| 2026-05-05 18:44 | 53.32553 | -0.77615 | 28558 ft | 432 kts | 109° |
| 2026-05-05 18:45 | 53.31653 | -0.72789 | 28975 ft | 435 kts | 109° |
| 2026-05-05 18:45 | 53.30748 | -0.67950 | 29387 ft | 437 kts | 109° |
| 2026-05-05 18:45 | 53.29836 | -0.63083 | 29787 ft | 439 kts | 109° |
| 2026-05-05 18:45 | 53.28917 | -0.58195 | 30162 ft | 441 kts | 109° |
| 2026-05-05 18:46 | 53.27991 | -0.53280 | 30492 ft | 443 kts | 109° |
| 2026-05-05 18:46 | 53.27060 | -0.48350 | 30823 ft | 445 kts | 109° |
| 2026-05-05 18:46 | 53.26136 | -0.43474 | 31148 ft | 447 kts | 109° |
| 2026-05-05 18:46 | 53.25192 | -0.38503 | 31459 ft | 448 kts | 109° |
| 2026-05-05 18:47 | 53.24245 | -0.33530 | 31741 ft | 451 kts | 110° |
| 2026-05-05 18:47 | 53.23290 | -0.28523 | 32039 ft | 453 kts | 110° |
| 2026-05-05 18:47 | 53.22337 | -0.23549 | 32358 ft | 455 kts | 110° |
| 2026-05-05 18:47 | 53.21372 | -0.18520 | 32665 ft | 456 kts | 110° |
| 2026-05-05 18:48 | 53.20401 | -0.13472 | 32954 ft | 458 kts | 110° |
| 2026-05-05 18:48 | 53.19419 | -0.08385 | 33279 ft | 459 kts | 110° |
| 2026-05-05 18:48 | 53.18434 | -0.03289 | 33682 ft | 459 kts | 109° |
| 2026-05-05 18:48 | 53.17453 | 0.01765 | 34045 ft | 458 kts | 110° |
| 2026-05-05 18:49 | 53.16479 | 0.06770 | 34282 ft | 460 kts | 110° |
| 2026-05-05 18:49 | 53.15489 | 0.11851 | 34571 ft | 460 kts | 110° |
| 2026-05-05 18:49 | 53.14495 | 0.16934 | 34868 ft | 460 kts | 110° |
| 2026-05-05 18:49 | 53.13499 | 0.22013 | 35160 ft | 460 kts | 110° |
| 2026-05-05 18:50 | 53.12504 | 0.27073 | 35453 ft | 460 kts | 110° |
| 2026-05-05 18:50 | 53.11508 | 0.32133 | 35735 ft | 461 kts | 110° |
| 2026-05-05 18:50 | 53.10502 | 0.37222 | 36018 ft | 461 kts | 110° |
| 2026-05-05 18:50 | 53.09511 | 0.42224 | 36294 ft | 461 kts | 110° |
| 2026-05-05 18:51 | 53.08504 | 0.47295 | 36563 ft | 461 kts | 110° |
| 2026-05-05 18:51 | 53.07492 | 0.52375 | 36815 ft | 461 kts | 110° |
| 2026-05-05 18:51 | 53.06481 | 0.57439 | 36996 ft | 462 kts | 110° |
| 2026-05-05 18:51 | 53.05461 | 0.62538 | 36994 ft | 462 kts | 110° |
| 2026-05-05 18:52 | 53.03443 | 0.72580 | 36989 ft | 460 kts | 110° |
| 2026-05-05 18:52 | 53.01397 | 0.82710 | 36980 ft | 460 kts | 110° |
| 2026-05-05 18:53 | 52.99350 | 0.92793 | 36974 ft | 460 kts | 111° |
| 2026-05-05 18:53 | 52.97231 | 1.02733 | 36975 ft | 459 kts | 113° |
| 2026-05-05 18:54 | 52.94980 | 1.12661 | 36983 ft | 460 kts | 113° |
| 2026-05-05 18:54 | 52.92727 | 1.22619 | 36979 ft | 460 kts | 113° |
| 2026-05-05 18:55 | 52.90483 | 1.32493 | 36981 ft | 459 kts | 113° |
| 2026-05-05 18:55 | 52.88223 | 1.42394 | 36976 ft | 459 kts | 113° |
| 2026-05-05 18:56 | 52.85951 | 1.52299 | 36967 ft | 459 kts | 113° |
| 2026-05-05 18:56 | 52.83688 | 1.62121 | 36974 ft | 459 kts | 113° |
| 2026-05-05 18:57 | 52.81402 | 1.71994 | 36971 ft | 459 kts | 114° |
| 2026-05-05 18:57 | 52.79109 | 1.81852 | 36964 ft | 459 kts | 114° |
| 2026-05-05 18:58 | 52.76823 | 1.91636 | 36963 ft | 459 kts | 114° |
| 2026-05-05 18:58 | 52.74506 | 2.01508 | 36944 ft | 459 kts | 114° |
| 2026-05-05 18:59 | 52.72208 | 2.11255 | 36954 ft | 455 kts | 114° |
| 2026-05-05 18:59 | 52.69908 | 2.20965 | 36957 ft | 455 kts | 114° |
| 2026-05-05 19:00 | 52.67984 | 2.29055 | 36956 ft | 455 kts | 114° |
| 2026-05-05 19:00 | 52.65290 | 2.40329 | 36957 ft | 455 kts | 115° |
| 2026-05-05 19:01 | 52.62958 | 2.50042 | 36950 ft | 455 kts | 115° |
| 2026-05-05 19:01 | 52.61020 | 2.58083 | 36943 ft | 452 kts | 115° |
| 2026-05-05 19:02 | 52.58708 | 2.67639 | 36959 ft | 452 kts | 115° |
| 2026-05-05 19:02 | 52.56379 | 2.77232 | 36954 ft | 452 kts | 115° |
| 2026-05-05 19:03 | 52.53826 | 2.86642 | 36963 ft | 447 kts | 122° |
| 2026-05-05 19:03 | 52.50838 | 2.95644 | 36935 ft | 448 kts | 122° |
| 2026-05-05 19:04 | 52.47849 | 3.04569 | 36932 ft | 447 kts | 122° |
| 2026-05-05 19:04 | 52.44846 | 3.13497 | 36941 ft | 445 kts | 122° |
| 2026-05-05 19:05 | 52.41851 | 3.22366 | 36932 ft | 445 kts | 122° |
| 2026-05-05 19:05 | 52.38862 | 3.31189 | 36932 ft | 445 kts | 122° |
| 2026-05-05 19:06 | 52.35848 | 3.40053 | 36924 ft | 445 kts | 122° |
| 2026-05-05 19:06 | 52.32827 | 3.48906 | 36924 ft | 445 kts | 122° |
| 2026-05-05 19:07 | 52.29791 | 3.57772 | 36924 ft | 446 kts | 122° |
| 2026-05-05 19:07 | 52.26756 | 3.66602 | 36924 ft | 446 kts | 122° |
| 2026-05-05 19:08 | 52.23728 | 3.75380 | 36923 ft | 446 kts | 122° |
| 2026-05-05 19:08 | 52.20676 | 3.84201 | 36914 ft | 445 kts | 122° |
| 2026-05-05 19:09 | 52.17634 | 3.92960 | 36918 ft | 446 kts | 123° |
| 2026-05-05 19:09 | 52.14558 | 4.01782 | 36913 ft | 447 kts | 122° |
| 2026-05-05 19:10 | 52.11491 | 4.10552 | 36908 ft | 447 kts | 122° |
| 2026-05-05 19:10 | 52.08403 | 4.19349 | 36900 ft | 447 kts | 122° |
| 2026-05-05 19:11 | 52.05325 | 4.28090 | 36901 ft | 447 kts | 122° |
| 2026-05-05 19:11 | 52.02223 | 4.36863 | 36912 ft | 447 kts | 123° |
| 2026-05-05 19:12 | 51.99112 | 4.45636 | 36911 ft | 447 kts | 123° |
| 2026-05-05 19:12 | 51.96017 | 4.54332 | 36911 ft | 447 kts | 123° |
| 2026-05-05 19:13 | 51.92895 | 4.63074 | 36907 ft | 446 kts | 123° |
| 2026-05-05 19:13 | 51.89790 | 4.71736 | 36881 ft | 446 kts | 123° |
| 2026-05-05 19:14 | 51.86665 | 4.80425 | 36879 ft | 446 kts | 123° |
| 2026-05-05 19:14 | 51.83556 | 4.89041 | 36873 ft | 446 kts | 123° |
| 2026-05-05 19:15 | 51.80425 | 4.97689 | 36883 ft | 445 kts | 123° |
| 2026-05-05 19:15 | 51.77285 | 5.06330 | 36881 ft | 445 kts | 123° |
| 2026-05-05 19:16 | 51.74158 | 5.14909 | 36883 ft | 445 kts | 123° |
| 2026-05-05 19:16 | 51.71009 | 5.23516 | 36881 ft | 445 kts | 123° |
| 2026-05-05 19:17 | 51.67855 | 5.32111 | 36860 ft | 445 kts | 123° |
| 2026-05-05 19:17 | 51.64710 | 5.40650 | 36859 ft | 441 kts | 123° |
| 2026-05-05 19:18 | 51.61585 | 5.49106 | 36862 ft | 441 kts | 124° |
| 2026-05-05 19:18 | 51.58437 | 5.57598 | 36858 ft | 441 kts | 124° |
| 2026-05-05 19:19 | 51.55289 | 5.66061 | 36882 ft | 441 kts | 124° |
| 2026-05-05 19:19 | 51.52148 | 5.74478 | 36879 ft | 441 kts | 124° |
| 2026-05-05 19:20 | 51.48978 | 5.82945 | 36880 ft | 441 kts | 124° |
| 2026-05-05 19:20 | 51.45831 | 5.91319 | 36856 ft | 440 kts | 124° |
| 2026-05-05 19:21 | 51.42652 | 5.99754 | 36858 ft | 441 kts | 124° |
| 2026-05-05 19:21 | 51.39479 | 6.08144 | 36850 ft | 440 kts | 124° |
| 2026-05-05 19:22 | 51.36304 | 6.16514 | 36857 ft | 440 kts | 124° |
| 2026-05-05 19:22 | 51.33123 | 6.24871 | 36857 ft | 439 kts | 124° |
| 2026-05-05 19:23 | 51.29958 | 6.33159 | 36859 ft | 439 kts | 124° |
| 2026-05-05 19:23 | 51.26765 | 6.41494 | 36861 ft | 439 kts | 124° |
| 2026-05-05 19:24 | 51.23566 | 6.49815 | 36860 ft | 439 kts | 124° |
| 2026-05-05 19:24 | 51.20378 | 6.58086 | 36830 ft | 439 kts | 124° |
| 2026-05-05 19:25 | 51.17189 | 6.66329 | 36819 ft | 439 kts | 124° |
| 2026-05-05 19:25 | 51.13979 | 6.74600 | 36851 ft | 439 kts | 124° |
| 2026-05-05 19:26 | 51.10765 | 6.82856 | 36847 ft | 437 kts | 124° |
| 2026-05-05 19:26 | 51.07571 | 6.91034 | 36843 ft | 437 kts | 124° |
| 2026-05-05 19:27 | 51.04355 | 6.99242 | 36829 ft | 437 kts | 124° |
| 2026-05-05 19:27 | 51.01121 | 7.07469 | 36832 ft | 437 kts | 124° |
| 2026-05-05 19:28 | 50.97898 | 7.15644 | 36829 ft | 437 kts | 124° |
| 2026-05-05 19:28 | 50.94683 | 7.23773 | 36830 ft | 437 kts | 125° |
| 2026-05-05 19:29 | 50.91437 | 7.31953 | 36830 ft | 437 kts | 125° |
| 2026-05-05 19:29 | 50.88206 | 7.40069 | 36823 ft | 437 kts | 125° |
| 2026-05-05 19:30 | 50.84951 | 7.48222 | 36827 ft | 437 kts | 125° |
| 2026-05-05 19:30 | 50.81686 | 7.56373 | 36806 ft | 437 kts | 125° |
| 2026-05-05 19:31 | 50.78437 | 7.64465 | 36815 ft | 437 kts | 125° |
| 2026-05-05 19:31 | 50.75173 | 7.72569 | 36810 ft | 437 kts | 125° |
| 2026-05-05 19:32 | 50.71909 | 7.80651 | 36808 ft | 437 kts | 125° |
| 2026-05-05 19:32 | 50.68631 | 7.88744 | 36802 ft | 437 kts | 125° |
| 2026-05-05 19:33 | 50.65370 | 7.96771 | 36788 ft | 437 kts | 126° |
| 2026-05-05 19:33 | 50.62084 | 8.04835 | 36811 ft | 436 kts | 126° |
| 2026-05-05 19:34 | 50.58506 | 8.12506 | 36827 ft | 433 kts | 132° |
| 2026-05-05 19:35 | 50.52856 | 8.23583 | 36814 ft | 434 kts | 131° |
| 2026-05-05 19:35 | 50.49095 | 8.31022 | 36811 ft | 434 kts | 131° |
| 2026-05-05 19:36 | 50.45332 | 8.38447 | 36795 ft | 434 kts | 131° |
| 2026-05-05 19:36 | 50.41565 | 8.45863 | 36811 ft | 434 kts | 131° |
| 2026-05-05 19:37 | 50.37788 | 8.53178 | 36803 ft | 432 kts | 136° |
| 2026-05-05 19:37 | 50.33628 | 8.60011 | 36803 ft | 432 kts | 136° |
| 2026-05-05 19:38 | 50.29534 | 8.66847 | 36813 ft | 434 kts | 135° |
| 2026-05-05 19:38 | 50.25409 | 8.73743 | 36803 ft | 434 kts | 135° |
| 2026-05-05 19:39 | 50.21281 | 8.80627 | 36808 ft | 434 kts | 135° |
| 2026-05-05 19:39 | 50.17145 | 8.87508 | 36806 ft | 434 kts | 135° |
| 2026-05-05 19:40 | 50.13028 | 8.94338 | 36805 ft | 434 kts | 135° |
| 2026-05-05 19:40 | 50.08888 | 9.01188 | 36808 ft | 434 kts | 136° |
| 2026-05-05 19:41 | 50.04732 | 9.08044 | 36809 ft | 435 kts | 136° |
| 2026-05-05 19:41 | 50.00599 | 9.14846 | 36801 ft | 435 kts | 136° |
| 2026-05-05 19:42 | 49.96436 | 9.21676 | 36812 ft | 435 kts | 136° |
| 2026-05-05 19:42 | 49.92263 | 9.28508 | 36817 ft | 435 kts | 136° |
| 2026-05-05 19:43 | 49.88112 | 9.35284 | 36816 ft | 435 kts | 136° |
| 2026-05-05 19:43 | 49.83934 | 9.42085 | 36820 ft | 435 kts | 136° |
| 2026-05-05 19:44 | 49.79751 | 9.48876 | 36819 ft | 435 kts | 136° |
| 2026-05-05 19:44 | 49.75585 | 9.55622 | 36805 ft | 436 kts | 136° |
| 2026-05-05 19:45 | 49.71388 | 9.62400 | 36824 ft | 436 kts | 136° |
| 2026-05-05 19:45 | 49.67186 | 9.69167 | 36825 ft | 436 kts | 136° |
| 2026-05-05 19:46 | 49.62983 | 9.75919 | 36829 ft | 436 kts | 136° |
| 2026-05-05 19:46 | 49.59489 | 9.81519 | 36830 ft | 436 kts | 136° |
| 2026-05-05 19:47 | 49.54594 | 9.89342 | 36830 ft | 436 kts | 136° |
| 2026-05-05 19:47 | 49.51062 | 9.94971 | 36828 ft | 437 kts | 137° |
| 2026-05-05 19:48 | 49.46849 | 10.01671 | 36827 ft | 437 kts | 137° |
| 2026-05-05 19:48 | 49.42614 | 10.08388 | 36829 ft | 437 kts | 137° |
| 2026-05-05 19:49 | 49.38369 | 10.15102 | 36832 ft | 437 kts | 137° |
| 2026-05-05 19:49 | 49.34152 | 10.21756 | 36835 ft | 437 kts | 137° |
| 2026-05-05 19:50 | 49.29900 | 10.28450 | 36820 ft | 437 kts | 137° |
| 2026-05-05 19:50 | 49.25656 | 10.35115 | 36853 ft | 439 kts | 137° |
| 2026-05-05 19:51 | 49.21307 | 10.41680 | 36858 ft | 438 kts | 139° |
| 2026-05-05 19:51 | 49.16961 | 10.48138 | 36857 ft | 438 kts | 139° |
| 2026-05-05 19:52 | 49.12579 | 10.54645 | 36861 ft | 438 kts | 139° |
| 2026-05-05 19:52 | 49.08193 | 10.61144 | 36865 ft | 438 kts | 139° |
| 2026-05-05 19:53 | 49.03834 | 10.67585 | 36853 ft | 438 kts | 140° |
| 2026-05-05 19:53 | 48.99438 | 10.74063 | 36856 ft | 439 kts | 140° |
| 2026-05-05 19:54 | 48.95036 | 10.80535 | 36850 ft | 439 kts | 140° |
| 2026-05-05 19:54 | 48.90653 | 10.86961 | 36849 ft | 439 kts | 140° |
| 2026-05-05 19:55 | 48.86232 | 10.93427 | 36836 ft | 439 kts | 140° |
| 2026-05-05 19:55 | 48.81849 | 10.99820 | 36810 ft | 439 kts | 140° |
| 2026-05-05 19:56 | 48.77437 | 11.06239 | 36826 ft | 438 kts | 140° |
| 2026-05-05 19:56 | 48.73022 | 11.12647 | 36831 ft | 441 kts | 141° |
| 2026-05-05 19:57 | 48.68598 | 11.19053 | 36825 ft | 441 kts | 141° |
| 2026-05-05 19:57 | 48.64337 | 11.25752 | 36808 ft | 448 kts | 127° |
| 2026-05-05 19:58 | 48.61357 | 11.34107 | 36816 ft | 452 kts | 122° |
| 2026-05-05 19:58 | 48.58438 | 11.42536 | 36830 ft | 453 kts | 122° |
| 2026-05-05 19:59 | 48.55554 | 11.50934 | 36832 ft | 452 kts | 122° |
| 2026-05-05 19:59 | 48.52650 | 11.59374 | 36833 ft | 452 kts | 122° |
| 2026-05-05 20:00 | 48.49746 | 11.67787 | 36850 ft | 452 kts | 122° |
| 2026-05-05 20:00 | 48.46854 | 11.76135 | 36828 ft | 454 kts | 122° |
| 2026-05-05 20:01 | 48.43920 | 11.84582 | 36861 ft | 455 kts | 122° |
| 2026-05-05 20:01 | 48.40977 | 11.93024 | 36859 ft | 454 kts | 122° |
| 2026-05-05 20:02 | 48.38052 | 12.01386 | 36850 ft | 454 kts | 122° |
| 2026-05-05 20:02 | 48.35099 | 12.09806 | 36845 ft | 454 kts | 122° |
| 2026-05-05 20:03 | 48.32142 | 12.18206 | 36829 ft | 456 kts | 122° |
| 2026-05-05 20:03 | 48.29168 | 12.26628 | 36820 ft | 456 kts | 122° |
| 2026-05-05 20:04 | 48.26184 | 12.35049 | 36820 ft | 456 kts | 122° |
| 2026-05-05 20:04 | 48.23220 | 12.43389 | 36824 ft | 456 kts | 123° |
| 2026-05-05 20:05 | 48.20225 | 12.51791 | 36824 ft | 455 kts | 123° |
| 2026-05-05 20:05 | 48.17249 | 12.60114 | 36823 ft | 455 kts | 123° |
| 2026-05-05 20:06 | 48.14230 | 12.68480 | 36820 ft | 454 kts | 126° |
| 2026-05-05 20:06 | 48.10352 | 12.75684 | 36811 ft | 448 kts | 134° |
| 2026-05-05 20:07 | 48.06345 | 12.82812 | 36825 ft | 448 kts | 135° |
| 2026-05-05 20:07 | 48.02315 | 12.89918 | 36818 ft | 448 kts | 135° |
| 2026-05-05 20:08 | 47.98270 | 12.97028 | 36837 ft | 448 kts | 135° |
| 2026-05-05 20:08 | 47.94243 | 13.04087 | 36832 ft | 448 kts | 135° |
| 2026-05-05 20:09 | 47.90195 | 13.11163 | 36831 ft | 448 kts | 135° |
| 2026-05-05 20:09 | 47.86134 | 13.18243 | 36832 ft | 448 kts | 135° |
| 2026-05-05 20:10 | 47.82077 | 13.25299 | 36828 ft | 448 kts | 135° |
| 2026-05-05 20:10 | 47.79388 | 13.29966 | 36831 ft | 449 kts | 135° |